sensor_id;sensor_type;location;lat;lon;timestamp;temperature;humidity
47779;DHT22;33538;48.432;11.350;2023-12-29T00:00:37;7.40;94.60
47779;DHT22;33538;48.432;11.350;2023-12-29T00:03:05;7.40;94.70
47779;DHT22;33538;48.432;11.350;2023-12-29T00:05:33;7.40;94.70
47779;DHT22;33538;48.432;11.350;2023-12-29T00:08:00;7.50;94.70
47779;DHT22;33538;48.432;11.350;2023-12-29T00:10:27;7.40;94.80
47779;DHT22;33538;48.432;11.350;2023-12-29T00:12:54;7.40;94.70
47779;DHT22;33538;48.432;11.350;2023-12-29T00:15:21;7.50;94.90
47779;DHT22;33538;48.432;11.350;2023-12-29T00:17:48;7.50;94.90
47779;DHT22;33538;48.432;11.350;2023-12-29T00:20:15;7.40;95.00
47779;DHT22;33538;48.432;11.350;2023-12-29T00:23:00;7.50;94.90
47779;DHT22;33538;48.432;11.350;2023-12-29T00:25:27;7.40;95.00
47779;DHT22;33538;48.432;11.350;2023-12-29T00:27:54;7.40;95.00
47779;DHT22;33538;48.432;11.350;2023-12-29T00:30:21;7.40;95.00
47779;DHT22;33538;48.432;11.350;2023-12-29T00:32:48;7.40;95.10
47779;DHT22;33538;48.432;11.350;2023-12-29T00:35:15;7.40;95.10
47779;DHT22;33538;48.432;11.350;2023-12-29T00:37:42;7.40;95.30
47779;DHT22;33538;48.432;11.350;2023-12-29T00:40:11;7.40;95.10
47779;DHT22;33538;48.432;11.350;2023-12-29T00:42:38;7.40;95.10
47779;DHT22;33538;48.432;11.350;2023-12-29T00:45:06;7.40;95.10
47779;DHT22;33538;48.432;11.350;2023-12-29T00:47:33;7.40;95.10
47779;DHT22;33538;48.432;11.350;2023-12-29T00:50:00;7.40;95.30
47779;DHT22;33538;48.432;11.350;2023-12-29T00:52:27;7.40;95.30
47779;DHT22;33538;48.432;11.350;2023-12-29T00:54:54;7.40;95.30
47779;DHT22;33538;48.432;11.350;2023-12-29T00:57:22;7.40;95.30
47779;DHT22;33538;48.432;11.350;2023-12-29T00:59:49;7.40;95.50
47779;DHT22;33538;48.432;11.350;2023-12-29T01:02:16;7.40;95.60
47779;DHT22;33538;48.432;11.350;2023-12-29T01:04:43;7.40;95.60
47779;DHT22;33538;48.432;11.350;2023-12-29T01:07:09;7.40;95.60
47779;DHT22;33538;48.432;11.350;2023-12-29T01:09:39;7.40;95.60
47779;DHT22;33538;48.432;11.350;2023-12-29T01:12:07;7.40;95.70
47779;DHT22;33538;48.432;11.350;2023-12-29T01:14:35;7.40;95.80
47779;DHT22;33538;48.432;11.350;2023-12-29T01:17:02;7.40;95.80
47779;DHT22;33538;48.432;11.350;2023-12-29T01:19:29;7.40;95.90
47779;DHT22;33538;48.432;11.350;2023-12-29T01:21:56;7.40;96.00
47779;DHT22;33538;48.432;11.350;2023-12-29T01:24:23;7.40;96.10
47779;DHT22;33538;48.432;11.350;2023-12-29T01:27:01;7.40;96.10
47779;DHT22;33538;48.432;11.350;2023-12-29T01:29:28;7.30;96.00
47779;DHT22;33538;48.432;11.350;2023-12-29T01:31:56;7.30;96.10
47779;DHT22;33538;48.432;11.350;2023-12-29T01:34:23;7.30;96.30
47779;DHT22;33538;48.432;11.350;2023-12-29T01:36:51;7.40;96.40
47779;DHT22;33538;48.432;11.350;2023-12-29T01:39:18;7.30;96.30
47779;DHT22;33538;48.432;11.350;2023-12-29T01:41:44;7.30;96.40
47779;DHT22;33538;48.432;11.350;2023-12-29T01:44:21;7.30;96.50
47779;DHT22;33538;48.432;11.350;2023-12-29T01:46:49;7.30;96.50
47779;DHT22;33538;48.432;11.350;2023-12-29T01:49:19;7.30;96.60
47779;DHT22;33538;48.432;11.350;2023-12-29T01:51:49;7.30;96.50
47779;DHT22;33538;48.432;11.350;2023-12-29T01:54:18;7.30;96.40
47779;DHT22;33538;48.432;11.350;2023-12-29T01:56:46;7.30;96.30
47779;DHT22;33538;48.432;11.350;2023-12-29T01:59:15;7.30;96.30
47779;DHT22;33538;48.432;11.350;2023-12-29T02:01:53;7.30;96.20
47779;DHT22;33538;48.432;11.350;2023-12-29T02:04:23;7.30;96.20
47779;DHT22;33538;48.432;11.350;2023-12-29T02:06:51;7.30;96.30
47779;DHT22;33538;48.432;11.350;2023-12-29T02:09:18;7.30;96.40
47779;DHT22;33538;48.432;11.350;2023-12-29T02:11:45;7.30;96.50
47779;DHT22;33538;48.432;11.350;2023-12-29T02:14:12;7.30;96.50
47779;DHT22;33538;48.432;11.350;2023-12-29T02:16:46;7.30;96.50
47779;DHT22;33538;48.432;11.350;2023-12-29T02:19:38;7.30;96.40
47779;DHT22;33538;48.432;11.350;2023-12-29T02:22:07;7.30;96.50
47779;DHT22;33538;48.432;11.350;2023-12-29T02:24:35;7.30;96.40
47779;DHT22;33538;48.432;11.350;2023-12-29T02:27:16;7.30;96.30
47779;DHT22;33538;48.432;11.350;2023-12-29T02:29:51;7.30;96.20
47779;DHT22;33538;48.432;11.350;2023-12-29T02:32:23;7.30;96.10
47779;DHT22;33538;48.432;11.350;2023-12-29T02:34:51;7.30;96.00
47779;DHT22;33538;48.432;11.350;2023-12-29T02:37:19;7.30;96.00
47779;DHT22;33538;48.432;11.350;2023-12-29T02:39:47;7.30;95.90
47779;DHT22;33538;48.432;11.350;2023-12-29T02:42:15;7.30;95.90
47779;DHT22;33538;48.432;11.350;2023-12-29T02:44:42;7.30;95.80
47779;DHT22;33538;48.432;11.350;2023-12-29T02:47:09;7.30;95.80
47779;DHT22;33538;48.432;11.350;2023-12-29T02:49:36;7.30;95.80
47779;DHT22;33538;48.432;11.350;2023-12-29T02:52:04;7.30;95.80
47779;DHT22;33538;48.432;11.350;2023-12-29T02:54:31;7.20;95.70
47779;DHT22;33538;48.432;11.350;2023-12-29T02:56:58;7.30;95.80
47779;DHT22;33538;48.432;11.350;2023-12-29T02:59:26;7.20;95.70
47779;DHT22;33538;48.432;11.350;2023-12-29T03:01:53;7.30;95.70
47779;DHT22;33538;48.432;11.350;2023-12-29T03:04:20;7.30;95.70
47779;DHT22;33538;48.432;11.350;2023-12-29T03:06:46;7.30;95.70
47779;DHT22;33538;48.432;11.350;2023-12-29T03:09:13;7.30;95.70
47779;DHT22;33538;48.432;11.350;2023-12-29T03:11:40;7.20;95.60
47779;DHT22;33538;48.432;11.350;2023-12-29T03:14:07;7.20;95.60
47779;DHT22;33538;48.432;11.350;2023-12-29T03:16:35;7.20;95.50
47779;DHT22;33538;48.432;11.350;2023-12-29T03:19:02;7.20;95.40
47779;DHT22;33538;48.432;11.350;2023-12-29T03:21:29;7.20;95.40
47779;DHT22;33538;48.432;11.350;2023-12-29T03:23:56;7.20;95.30
47779;DHT22;33538;48.432;11.350;2023-12-29T03:26:22;7.30;95.20
47779;DHT22;33538;48.432;11.350;2023-12-29T03:28:50;7.20;95.10
47779;DHT22;33538;48.432;11.350;2023-12-29T03:31:17;7.20;95.00
47779;DHT22;33538;48.432;11.350;2023-12-29T03:33:45;7.20;95.00
47779;DHT22;33538;48.432;11.350;2023-12-29T03:36:12;7.20;95.20
47779;DHT22;33538;48.432;11.350;2023-12-29T03:38:39;7.20;94.80
47779;DHT22;33538;48.432;11.350;2023-12-29T03:41:05;7.20;94.70
47779;DHT22;33538;48.432;11.350;2023-12-29T03:43:33;7.20;94.70
47779;DHT22;33538;48.432;11.350;2023-12-29T03:46:00;7.20;94.60
47779;DHT22;33538;48.432;11.350;2023-12-29T03:48:27;7.10;94.50
47779;DHT22;33538;48.432;11.350;2023-12-29T03:50:55;7.20;94.40
47779;DHT22;33538;48.432;11.350;2023-12-29T03:53:22;7.10;94.30
47779;DHT22;33538;48.432;11.350;2023-12-29T03:55:49;7.10;94.30
47779;DHT22;33538;48.432;11.350;2023-12-29T03:58:16;7.10;94.20
47779;DHT22;33538;48.432;11.350;2023-12-29T04:00:43;7.10;94.20
47779;DHT22;33538;48.432;11.350;2023-12-29T04:03:10;7.20;94.20
47779;DHT22;33538;48.432;11.350;2023-12-29T04:05:37;7.20;94.20
47779;DHT22;33538;48.432;11.350;2023-12-29T04:08:06;7.10;94.00
47779;DHT22;33538;48.432;11.350;2023-12-29T04:10:32;7.20;94.10
47779;DHT22;33538;48.432;11.350;2023-12-29T04:12:59;7.20;94.00
47779;DHT22;33538;48.432;11.350;2023-12-29T04:15:26;7.20;94.00
47779;DHT22;33538;48.432;11.350;2023-12-29T04:17:53;7.10;93.90
47779;DHT22;33538;48.432;11.350;2023-12-29T04:20:20;7.20;93.90
47779;DHT22;33538;48.432;11.350;2023-12-29T04:22:46;7.10;93.80
47779;DHT22;33538;48.432;11.350;2023-12-29T04:25:15;7.20;93.80
47779;DHT22;33538;48.432;11.350;2023-12-29T04:27:42;7.20;93.80
47779;DHT22;33538;48.432;11.350;2023-12-29T04:30:09;7.20;93.70
47779;DHT22;33538;48.432;11.350;2023-12-29T04:32:36;7.20;93.70
47779;DHT22;33538;48.432;11.350;2023-12-29T04:35:04;7.20;93.70
47779;DHT22;33538;48.432;11.350;2023-12-29T04:37:31;7.20;93.70
47779;DHT22;33538;48.432;11.350;2023-12-29T04:39:58;7.20;93.70
47779;DHT22;33538;48.432;11.350;2023-12-29T04:42:26;7.20;93.70
47779;DHT22;33538;48.432;11.350;2023-12-29T04:44:53;7.10;93.70
47779;DHT22;33538;48.432;11.350;2023-12-29T04:47:20;7.20;93.70
47779;DHT22;33538;48.432;11.350;2023-12-29T04:49:47;7.20;93.70
47779;DHT22;33538;48.432;11.350;2023-12-29T04:52:14;7.20;93.60
47779;DHT22;33538;48.432;11.350;2023-12-29T04:54:41;7.20;93.60
47779;DHT22;33538;48.432;11.350;2023-12-29T04:57:08;7.20;93.60
47779;DHT22;33538;48.432;11.350;2023-12-29T04:59:36;7.20;93.50
47779;DHT22;33538;48.432;11.350;2023-12-29T05:02:03;7.20;93.50
47779;DHT22;33538;48.432;11.350;2023-12-29T05:04:30;7.20;93.40
47779;DHT22;33538;48.432;11.350;2023-12-29T05:06:57;7.20;93.40
47779;DHT22;33538;48.432;11.350;2023-12-29T05:09:24;7.20;93.40
47779;DHT22;33538;48.432;11.350;2023-12-29T05:11:51;7.20;93.40
47779;DHT22;33538;48.432;11.350;2023-12-29T05:14:18;7.20;93.30
47779;DHT22;33538;48.432;11.350;2023-12-29T05:16:46;7.20;93.30
47779;DHT22;33538;48.432;11.350;2023-12-29T05:19:13;7.20;93.30
47779;DHT22;33538;48.432;11.350;2023-12-29T05:21:39;7.20;93.30
47779;DHT22;33538;48.432;11.350;2023-12-29T05:24:06;7.20;93.30
47779;DHT22;33538;48.432;11.350;2023-12-29T05:26:33;7.20;93.20
47779;DHT22;33538;48.432;11.350;2023-12-29T05:29:00;7.20;93.20
47779;DHT22;33538;48.432;11.350;2023-12-29T05:31:27;7.20;93.20
47779;DHT22;33538;48.432;11.350;2023-12-29T05:33:55;7.20;93.20
47779;DHT22;33538;48.432;11.350;2023-12-29T05:36:22;7.20;93.20
47779;DHT22;33538;48.432;11.350;2023-12-29T05:38:49;7.20;93.20
47779;DHT22;33538;48.432;11.350;2023-12-29T05:41:16;7.20;93.20
47779;DHT22;33538;48.432;11.350;2023-12-29T05:43:43;7.20;93.60
47779;DHT22;33538;48.432;11.350;2023-12-29T05:46:10;7.20;93.20
47779;DHT22;33538;48.432;11.350;2023-12-29T05:48:37;7.20;93.20
47779;DHT22;33538;48.432;11.350;2023-12-29T05:51:07;7.20;93.20
47779;DHT22;33538;48.432;11.350;2023-12-29T05:53:34;7.20;93.20
47779;DHT22;33538;48.432;11.350;2023-12-29T05:56:01;7.20;93.20
47779;DHT22;33538;48.432;11.350;2023-12-29T05:58:28;7.20;93.30
47779;DHT22;33538;48.432;11.350;2023-12-29T06:00:54;7.20;93.30
47779;DHT22;33538;48.432;11.350;2023-12-29T06:03:21;7.20;93.30
47779;DHT22;33538;48.432;11.350;2023-12-29T06:05:48;7.20;93.30
47779;DHT22;33538;48.432;11.350;2023-12-29T06:08:16;7.20;93.30
47779;DHT22;33538;48.432;11.350;2023-12-29T06:10:43;7.20;93.40
47779;DHT22;33538;48.432;11.350;2023-12-29T06:13:10;7.20;93.40
47779;DHT22;33538;48.432;11.350;2023-12-29T06:15:37;7.20;93.40
47779;DHT22;33538;48.432;11.350;2023-12-29T06:18:04;7.20;93.40
47779;DHT22;33538;48.432;11.350;2023-12-29T06:20:32;7.20;93.80
47779;DHT22;33538;48.432;11.350;2023-12-29T06:22:59;7.20;93.40
47779;DHT22;33538;48.432;11.350;2023-12-29T06:25:27;7.20;93.40
47779;DHT22;33538;48.432;11.350;2023-12-29T06:27:54;7.20;93.40
47779;DHT22;33538;48.432;11.350;2023-12-29T06:30:21;7.20;93.40
47779;DHT22;33538;48.432;11.350;2023-12-29T06:32:48;7.20;93.40
47779;DHT22;33538;48.432;11.350;2023-12-29T06:35:15;7.20;93.40
47779;DHT22;33538;48.432;11.350;2023-12-29T06:37:42;7.20;93.40
47779;DHT22;33538;48.432;11.350;2023-12-29T06:40:09;7.20;93.50
47779;DHT22;33538;48.432;11.350;2023-12-29T06:42:37;7.30;93.50
47779;DHT22;33538;48.432;11.350;2023-12-29T06:45:05;7.30;93.40
47779;DHT22;33538;48.432;11.350;2023-12-29T06:47:32;7.30;93.50
47779;DHT22;33538;48.432;11.350;2023-12-29T06:49:59;7.30;93.50
47779;DHT22;33538;48.432;11.350;2023-12-29T06:52:26;7.30;93.40
47779;DHT22;33538;48.432;11.350;2023-12-29T06:54:53;7.30;93.50
47779;DHT22;33538;48.432;11.350;2023-12-29T06:57:20;7.30;93.50
47779;DHT22;33538;48.432;11.350;2023-12-29T06:59:48;7.30;93.50
47779;DHT22;33538;48.432;11.350;2023-12-29T07:02:15;7.30;93.50
47779;DHT22;33538;48.432;11.350;2023-12-29T07:07:51;7.30;93.90
47779;DHT22;33538;48.432;11.350;2023-12-29T07:10:18;7.30;93.50
47779;DHT22;33538;48.432;11.350;2023-12-29T07:12:45;7.30;93.50
47779;DHT22;33538;48.432;11.350;2023-12-29T07:15:13;7.30;93.60
47779;DHT22;33538;48.432;11.350;2023-12-29T07:17:40;7.30;93.60
47779;DHT22;33538;48.432;11.350;2023-12-29T07:20:08;7.40;93.70
47779;DHT22;33538;48.432;11.350;2023-12-29T07:22:34;7.40;93.70
47779;DHT22;33538;48.432;11.350;2023-12-29T07:25:02;7.40;93.70
47779;DHT22;33538;48.432;11.350;2023-12-29T07:27:28;7.40;93.70
47779;DHT22;33538;48.432;11.350;2023-12-29T07:29:55;7.40;93.80
47779;DHT22;33538;48.432;11.350;2023-12-29T07:32:24;7.40;93.80
47779;DHT22;33538;48.432;11.350;2023-12-29T07:34:50;7.40;93.80
47779;DHT22;33538;48.432;11.350;2023-12-29T07:37:17;7.40;93.80
47779;DHT22;33538;48.432;11.350;2023-12-29T07:39:44;7.40;93.90
47779;DHT22;33538;48.432;11.350;2023-12-29T07:42:11;7.40;93.90
47779;DHT22;33538;48.432;11.350;2023-12-29T07:44:38;7.40;93.90
47779;DHT22;33538;48.432;11.350;2023-12-29T07:47:06;7.40;94.00
47779;DHT22;33538;48.432;11.350;2023-12-29T07:49:34;7.40;94.00
47779;DHT22;33538;48.432;11.350;2023-12-29T07:52:01;7.40;94.00
47779;DHT22;33538;48.432;11.350;2023-12-29T07:54:27;7.40;94.10
47779;DHT22;33538;48.432;11.350;2023-12-29T07:56:54;7.40;94.10
47779;DHT22;33538;48.432;11.350;2023-12-29T07:59:21;7.40;94.20
47779;DHT22;33538;48.432;11.350;2023-12-29T08:01:48;7.40;94.20
47779;DHT22;33538;48.432;11.350;2023-12-29T08:04:15;7.40;94.20
47779;DHT22;33538;48.432;11.350;2023-12-29T08:06:43;7.40;94.40
47779;DHT22;33538;48.432;11.350;2023-12-29T08:09:10;7.40;94.40
47779;DHT22;33538;48.432;11.350;2023-12-29T08:11:37;7.40;94.50
47779;DHT22;33538;48.432;11.350;2023-12-29T08:17:32;7.40;94.70
47779;DHT22;33538;48.432;11.350;2023-12-29T08:19:59;7.40;95.10
47779;DHT22;33538;48.432;11.350;2023-12-29T08:22:29;7.40;94.70
47779;DHT22;33538;48.432;11.350;2023-12-29T08:24:56;7.40;95.20
47779;DHT22;33538;48.432;11.350;2023-12-29T08:27:24;7.40;94.80
47779;DHT22;33538;48.432;11.350;2023-12-29T08:29:51;7.40;94.90
47779;DHT22;33538;48.432;11.350;2023-12-29T08:32:18;7.40;95.00
47779;DHT22;33538;48.432;11.350;2023-12-29T08:34:45;7.40;94.90
47779;DHT22;33538;48.432;11.350;2023-12-29T08:37:12;7.40;95.00
47779;DHT22;33538;48.432;11.350;2023-12-29T08:39:40;7.50;95.20
47779;DHT22;33538;48.432;11.350;2023-12-29T08:42:07;7.50;95.30
47779;DHT22;33538;48.432;11.350;2023-12-29T08:44:34;7.50;95.40
47779;DHT22;33538;48.432;11.350;2023-12-29T08:47:00;7.50;95.40
47779;DHT22;33538;48.432;11.350;2023-12-29T08:49:27;7.50;95.60
47779;DHT22;33538;48.432;11.350;2023-12-29T08:51:54;7.50;95.70
47779;DHT22;33538;48.432;11.350;2023-12-29T08:54:21;7.50;95.80
47779;DHT22;33538;48.432;11.350;2023-12-29T08:56:49;7.50;96.10
47779;DHT22;33538;48.432;11.350;2023-12-29T08:59:16;7.60;95.90
47779;DHT22;33538;48.432;11.350;2023-12-29T09:01:43;7.50;96.10
47779;DHT22;33538;48.432;11.350;2023-12-29T09:04:10;7.50;96.30
47779;DHT22;33538;48.432;11.350;2023-12-29T09:06:37;7.60;96.10
47779;DHT22;33538;48.432;11.350;2023-12-29T09:09:04;7.60;96.20
47779;DHT22;33538;48.432;11.350;2023-12-29T09:11:31;7.60;96.00
47779;DHT22;33538;48.432;11.350;2023-12-29T09:13:59;7.60;96.60
47779;DHT22;33538;48.432;11.350;2023-12-29T09:16:26;7.60;96.20
47779;DHT22;33538;48.432;11.350;2023-12-29T09:18:52;7.60;96.20
47779;DHT22;33538;48.432;11.350;2023-12-29T09:21:19;7.60;96.40
47779;DHT22;33538;48.432;11.350;2023-12-29T09:23:46;7.60;96.20
47779;DHT22;33538;48.432;11.350;2023-12-29T09:26:15;7.60;96.20
47779;DHT22;33538;48.432;11.350;2023-12-29T09:28:42;7.70;96.20
47779;DHT22;33538;48.432;11.350;2023-12-29T09:31:11;7.70;96.20
47779;DHT22;33538;48.432;11.350;2023-12-29T09:33:38;7.70;96.80
47779;DHT22;33538;48.432;11.350;2023-12-29T09:36:05;7.70;96.50
47779;DHT22;33538;48.432;11.350;2023-12-29T09:38:33;7.70;96.40
47779;DHT22;33538;48.432;11.350;2023-12-29T09:41:04;7.70;96.80
47779;DHT22;33538;48.432;11.350;2023-12-29T09:43:31;7.70;96.40
47779;DHT22;33538;48.432;11.350;2023-12-29T09:45:59;7.80;96.60
47779;DHT22;33538;48.432;11.350;2023-12-29T09:48:27;7.80;96.50
47779;DHT22;33538;48.432;11.350;2023-12-29T09:50:55;7.80;96.40
47779;DHT22;33538;48.432;11.350;2023-12-29T09:53:22;7.80;96.50
47779;DHT22;33538;48.432;11.350;2023-12-29T09:55:49;7.80;96.60
47779;DHT22;33538;48.432;11.350;2023-12-29T09:58:19;7.80;96.70
47779;DHT22;33538;48.432;11.350;2023-12-29T10:00:49;7.80;96.50
47779;DHT22;33538;48.432;11.350;2023-12-29T10:03:16;7.80;96.60
47779;DHT22;33538;48.432;11.350;2023-12-29T10:05:50;7.80;96.50
47779;DHT22;33538;48.432;11.350;2023-12-29T10:08:18;7.80;96.60
47779;DHT22;33538;48.432;11.350;2023-12-29T10:10:46;7.80;96.70
47779;DHT22;33538;48.432;11.350;2023-12-29T10:13:15;7.80;96.70
47779;DHT22;33538;48.432;11.350;2023-12-29T10:15:49;7.80;96.70
47779;DHT22;33538;48.432;11.350;2023-12-29T10:18:22;7.90;96.90
47779;DHT22;33538;48.432;11.350;2023-12-29T10:20:59;7.90;96.90
47779;DHT22;33538;48.432;11.350;2023-12-29T10:23:32;7.90;96.90
47779;DHT22;33538;48.432;11.350;2023-12-29T10:26:03;7.90;97.00
47779;DHT22;33538;48.432;11.350;2023-12-29T10:28:30;7.90;97.10
47779;DHT22;33538;48.432;11.350;2023-12-29T10:30:57;7.90;97.10
47779;DHT22;33538;48.432;11.350;2023-12-29T10:33:25;7.90;97.20
47779;DHT22;33538;48.432;11.350;2023-12-29T10:36:01;8.00;97.30
47779;DHT22;33538;48.432;11.350;2023-12-29T10:38:29;8.00;97.30
47779;DHT22;33538;48.432;11.350;2023-12-29T10:41:10;8.00;97.30
47779;DHT22;33538;48.432;11.350;2023-12-29T10:43:37;8.00;97.60
47779;DHT22;33538;48.432;11.350;2023-12-29T10:46:06;8.00;97.40
47779;DHT22;33538;48.432;11.350;2023-12-29T10:48:33;8.10;97.60
47779;DHT22;33538;48.432;11.350;2023-12-29T10:51:02;8.10;97.60
47779;DHT22;33538;48.432;11.350;2023-12-29T10:53:29;8.10;98.10
47779;DHT22;33538;48.432;11.350;2023-12-29T10:55:56;8.10;97.90
47779;DHT22;33538;48.432;11.350;2023-12-29T10:58:23;8.10;97.90
47779;DHT22;33538;48.432;11.350;2023-12-29T11:00:50;8.10;97.90
47779;DHT22;33538;48.432;11.350;2023-12-29T11:03:17;8.10;98.00
47779;DHT22;33538;48.432;11.350;2023-12-29T11:05:44;8.10;98.00
47779;DHT22;33538;48.432;11.350;2023-12-29T11:08:17;8.20;98.10
47779;DHT22;33538;48.432;11.350;2023-12-29T11:10:45;8.10;98.10
47779;DHT22;33538;48.432;11.350;2023-12-29T11:13:12;8.20;98.30
47779;DHT22;33538;48.432;11.350;2023-12-29T11:15:42;8.20;98.30
47779;DHT22;33538;48.432;11.350;2023-12-29T11:18:12;8.20;98.40
47779;DHT22;33538;48.432;11.350;2023-12-29T11:20:39;8.20;98.40
47779;DHT22;33538;48.432;11.350;2023-12-29T11:23:08;8.20;98.60
47779;DHT22;33538;48.432;11.350;2023-12-29T11:25:37;8.20;98.40
47779;DHT22;33538;48.432;11.350;2023-12-29T11:28:05;8.20;98.50
47779;DHT22;33538;48.432;11.350;2023-12-29T11:30:47;8.20;98.50
47779;DHT22;33538;48.432;11.350;2023-12-29T11:33:20;8.20;98.60
47779;DHT22;33538;48.432;11.350;2023-12-29T11:35:53;8.30;98.90
47779;DHT22;33538;48.432;11.350;2023-12-29T11:38:32;8.30;99.20
47779;DHT22;33538;48.432;11.350;2023-12-29T11:41:08;8.30;99.20
47779;DHT22;33538;48.432;11.350;2023-12-29T11:43:36;8.30;99.30
47779;DHT22;33538;48.432;11.350;2023-12-29T11:46:03;8.40;99.40
47779;DHT22;33538;48.432;11.350;2023-12-29T11:48:53;8.40;99.20
47779;DHT22;33538;48.432;11.350;2023-12-29T11:51:31;8.40;99.30
47779;DHT22;33538;48.432;11.350;2023-12-29T15:00:29;8.70;99.90
47779;DHT22;33538;48.432;11.350;2023-12-29T15:02:56;8.70;99.90
47779;DHT22;33538;48.432;11.350;2023-12-29T15:05:23;8.70;99.90
47779;DHT22;33538;48.432;11.350;2023-12-29T15:07:50;8.70;99.90
47779;DHT22;33538;48.432;11.350;2023-12-29T15:10:17;8.70;99.90
47779;DHT22;33538;48.432;11.350;2023-12-29T15:12:43;8.70;99.90
47779;DHT22;33538;48.432;11.350;2023-12-29T15:15:10;8.70;99.90
47779;DHT22;33538;48.432;11.350;2023-12-29T15:17:38;8.70;99.90
47779;DHT22;33538;48.432;11.350;2023-12-29T15:20:06;8.70;99.90
47779;DHT22;33538;48.432;11.350;2023-12-29T15:22:34;8.70;99.90
47779;DHT22;33538;48.432;11.350;2023-12-29T15:25:01;8.70;99.90
47779;DHT22;33538;48.432;11.350;2023-12-29T15:27:28;8.70;99.90
47779;DHT22;33538;48.432;11.350;2023-12-29T15:29:56;8.70;99.90
47779;DHT22;33538;48.432;11.350;2023-12-29T15:32:23;8.70;99.90
47779;DHT22;33538;48.432;11.350;2023-12-29T15:34:51;8.70;99.90
47779;DHT22;33538;48.432;11.350;2023-12-29T15:37:19;8.70;99.90
47779;DHT22;33538;48.432;11.350;2023-12-29T15:39:45;8.70;99.90
47779;DHT22;33538;48.432;11.350;2023-12-29T15:42:12;8.70;99.90
47779;DHT22;33538;48.432;11.350;2023-12-29T15:44:39;8.70;99.90
47779;DHT22;33538;48.432;11.350;2023-12-29T15:47:06;8.70;99.90
47779;DHT22;33538;48.432;11.350;2023-12-29T15:49:33;8.70;99.90
47779;DHT22;33538;48.432;11.350;2023-12-29T15:52:01;8.70;99.90
47779;DHT22;33538;48.432;11.350;2023-12-29T15:54:28;8.70;99.90
47779;DHT22;33538;48.432;11.350;2023-12-29T15:56:55;8.70;99.90
47779;DHT22;33538;48.432;11.350;2023-12-29T15:59:21;8.70;99.90
47779;DHT22;33538;48.432;11.350;2023-12-29T16:01:48;8.70;99.90
47779;DHT22;33538;48.432;11.350;2023-12-29T16:04:15;8.70;99.90
47779;DHT22;33538;48.432;11.350;2023-12-29T16:06:42;8.70;99.90
47779;DHT22;33538;48.432;11.350;2023-12-29T16:09:11;8.70;99.90
47779;DHT22;33538;48.432;11.350;2023-12-29T16:11:37;8.70;99.90
47779;DHT22;33538;48.432;11.350;2023-12-29T16:14:04;8.70;99.80
47779;DHT22;33538;48.432;11.350;2023-12-29T16:16:31;8.70;99.70
47779;DHT22;33538;48.432;11.350;2023-12-29T16:18:58;8.70;99.60
47779;DHT22;33538;48.432;11.350;2023-12-29T16:21:26;8.60;99.70
47779;DHT22;33538;48.432;11.350;2023-12-29T16:23:55;8.60;99.70
47779;DHT22;33538;48.432;11.350;2023-12-29T16:26:23;8.60;99.60
47779;DHT22;33538;48.432;11.350;2023-12-29T16:29:01;8.60;99.40
47779;DHT22;33538;48.432;11.350;2023-12-29T16:31:28;8.60;99.40
47779;DHT22;33538;48.432;11.350;2023-12-29T16:33:55;8.60;99.30
47779;DHT22;33538;48.432;11.350;2023-12-29T16:36:22;8.60;99.30
47779;DHT22;33538;48.432;11.350;2023-12-29T16:38:50;8.60;99.30
47779;DHT22;33538;48.432;11.350;2023-12-29T16:41:18;8.60;99.30
47779;DHT22;33538;48.432;11.350;2023-12-29T16:43:46;8.60;99.20
47779;DHT22;33538;48.432;11.350;2023-12-29T16:46:13;8.60;99.20
47779;DHT22;33538;48.432;11.350;2023-12-29T16:48:40;8.60;99.20
47779;DHT22;33538;48.432;11.350;2023-12-29T16:51:07;8.60;99.20
47779;DHT22;33538;48.432;11.350;2023-12-29T16:53:35;8.60;99.10
47779;DHT22;33538;48.432;11.350;2023-12-29T16:56:02;8.60;99.00
47779;DHT22;33538;48.432;11.350;2023-12-29T16:58:28;8.60;99.00
47779;DHT22;33538;48.432;11.350;2023-12-29T17:00:57;8.60;99.00
47779;DHT22;33538;48.432;11.350;2023-12-29T17:03:24;8.60;99.00
47779;DHT22;33538;48.432;11.350;2023-12-29T17:05:50;8.60;99.00
47779;DHT22;33538;48.432;11.350;2023-12-29T17:08:17;8.60;99.00
47779;DHT22;33538;48.432;11.350;2023-12-29T17:10:44;8.60;98.90
47779;DHT22;33538;48.432;11.350;2023-12-29T17:13:11;8.60;99.00
47779;DHT22;33538;48.432;11.350;2023-12-29T17:15:38;8.60;99.00
47779;DHT22;33538;48.432;11.350;2023-12-29T17:18:06;8.60;99.00
47779;DHT22;33538;48.432;11.350;2023-12-29T17:20:33;8.60;99.00
47779;DHT22;33538;48.432;11.350;2023-12-29T17:23:00;8.60;99.00
47779;DHT22;33538;48.432;11.350;2023-12-29T17:25:27;8.60;98.90
47779;DHT22;33538;48.432;11.350;2023-12-29T17:27:55;8.60;99.00
47779;DHT22;33538;48.432;11.350;2023-12-29T17:30:22;8.60;99.00
47779;DHT22;33538;48.432;11.350;2023-12-29T17:32:49;8.50;98.90
47779;DHT22;33538;48.432;11.350;2023-12-29T17:35:17;8.50;98.90
47779;DHT22;33538;48.432;11.350;2023-12-29T17:37:44;8.50;98.90
47779;DHT22;33538;48.432;11.350;2023-12-29T17:40:11;8.50;98.90
47779;DHT22;33538;48.432;11.350;2023-12-29T17:42:38;8.50;98.80
47779;DHT22;33538;48.432;11.350;2023-12-29T17:45:06;8.50;98.70
47779;DHT22;33538;48.432;11.350;2023-12-29T17:47:33;8.50;98.70
47779;DHT22;33538;48.432;11.350;2023-12-29T17:50:01;8.50;98.80
47779;DHT22;33538;48.432;11.350;2023-12-29T17:52:29;8.50;98.80
47779;DHT22;33538;48.432;11.350;2023-12-29T17:54:56;8.50;98.70
47779;DHT22;33538;48.432;11.350;2023-12-29T17:57:24;8.50;98.80
47779;DHT22;33538;48.432;11.350;2023-12-29T17:59:51;8.50;98.70
47779;DHT22;33538;48.432;11.350;2023-12-29T18:02:17;8.50;98.70
47779;DHT22;33538;48.432;11.350;2023-12-29T18:04:44;8.50;98.60
47779;DHT22;33538;48.432;11.350;2023-12-29T18:07:11;8.40;98.70
47779;DHT22;33538;48.432;11.350;2023-12-29T18:09:42;8.40;98.70
47779;DHT22;33538;48.432;11.350;2023-12-29T18:12:08;8.40;98.70
47779;DHT22;33538;48.432;11.350;2023-12-29T18:14:39;8.40;98.50
47779;DHT22;33538;48.432;11.350;2023-12-29T18:17:06;8.40;98.40
47779;DHT22;33538;48.432;11.350;2023-12-29T18:19:33;8.40;98.50
47779;DHT22;33538;48.432;11.350;2023-12-29T18:22:00;8.30;98.50
47779;DHT22;33538;48.432;11.350;2023-12-29T18:24:26;8.30;98.70
47779;DHT22;33538;48.432;11.350;2023-12-29T18:26:54;8.40;98.70
47779;DHT22;33538;48.432;11.350;2023-12-29T18:29:21;8.30;98.60
47779;DHT22;33538;48.432;11.350;2023-12-29T18:31:48;8.30;98.40
47779;DHT22;33538;48.432;11.350;2023-12-29T18:34:35;8.30;98.40
47779;DHT22;33538;48.432;11.350;2023-12-29T18:37:02;8.40;98.30
47779;DHT22;33538;48.432;11.350;2023-12-29T18:39:29;8.30;98.10
47779;DHT22;33538;48.432;11.350;2023-12-29T18:41:57;8.40;98.00
47779;DHT22;33538;48.432;11.350;2023-12-29T18:44:24;8.40;98.10
47779;DHT22;33538;48.432;11.350;2023-12-29T18:46:50;8.40;97.80